Terminal Aerodrome Forecast
Issued by NWS Paducah, KY

Home | Current Version | Previous Version | Text Only | Print | Product List | Glossary On
Versions: 1 2 3 4 5 6 7 8 9 10 11 12 13 14 15 16 17 18 19
000
FTUS43 KPAH 151511 CCA
TAFPAH
TAF COR
KPAH 151511Z 1515/1612 25009KT 1SM -SN BR OVC012
      TEMPO 1517/1521 1/2SM SN FG OVC008
     FM152100 31009KT 5SM -SN BR OVC010
     FM160300 34009KT P6SM SCT035 OVC150=

USA.gov is the U.S. government's official web portal to all federal, state and local government web resources and services.